sensor_id;sensor_type;location;lat;lon;timestamp;pressure;altitude;pressure_sealevel;temperature;humidity
56038;BME280;41907;47.848;9.000;2023-03-01T00:01:48;96237.97;;;-1.06;100.00
56038;BME280;41907;47.848;9.000;2023-03-01T00:04:13;96224.88;;;-1.06;100.00
56038;BME280;41907;47.848;9.000;2023-03-01T00:06:38;96223.88;;;-1.05;99.99
56038;BME280;41907;47.848;9.000;2023-03-01T00:09:04;96229.22;;;-1.00;100.00
56038;BME280;41907;47.848;9.000;2023-03-01T00:11:31;96212.91;;;-1.02;100.00
56038;BME280;41907;47.848;9.000;2023-03-01T00:13:59;96226.38;;;-0.98;100.00
56038;BME280;41907;47.848;9.000;2023-03-01T00:16:32;96225.47;;;-0.92;100.00
56038;BME280;41907;47.848;9.000;2023-03-01T00:18:58;96210.34;;;-0.90;99.68
56038;BME280;41907;47.848;9.000;2023-03-01T00:21:25;96216.75;;;-0.86;99.96
56038;BME280;41907;47.848;9.000;2023-03-01T00:23:51;96224.94;;;-0.83;99.31
56038;BME280;41907;47.848;9.000;2023-03-01T00:26:18;96219.38;;;-0.86;99.48
56038;BME280;41907;47.848;9.000;2023-03-01T00:28:45;96205.94;;;-0.78;99.28
56038;BME280;41907;47.848;9.000;2023-03-01T00:31:13;96207.56;;;-0.77;99.08
56038;BME280;41907;47.848;9.000;2023-03-01T00:33:39;96213.13;;;-0.73;99.00
56038;BME280;41907;47.848;9.000;2023-03-01T00:36:05;96213.34;;;-0.75;99.39
56038;BME280;41907;47.848;9.000;2023-03-01T00:38:35;96201.75;;;-0.67;98.29
56038;BME280;41907;47.848;9.000;2023-03-01T00:41:09;96210.66;;;-0.57;97.96
56038;BME280;41907;47.848;9.000;2023-03-01T00:43:35;96209.50;;;-0.61;98.31
56038;BME280;41907;47.848;9.000;2023-03-01T00:46:06;96214.63;;;-0.54;98.00
56038;BME280;41907;47.848;9.000;2023-03-01T00:48:32;96210.66;;;-0.57;98.41
56038;BME280;41907;47.848;9.000;2023-03-01T00:51:10;96213.19;;;-0.50;98.56
56038;BME280;41907;47.848;9.000;2023-03-01T00:53:36;96214.31;;;-0.46;98.04
56038;BME280;41907;47.848;9.000;2023-03-01T00:56:03;96214.66;;;-0.43;97.95
56038;BME280;41907;47.848;9.000;2023-03-01T00:58:29;96206.81;;;-0.31;97.69
56038;BME280;41907;47.848;9.000;2023-03-01T01:00:55;96202.25;;;-0.35;97.73
56038;BME280;41907;47.848;9.000;2023-03-01T01:03:20;96197.69;;;-0.40;97.97
56038;BME280;41907;47.848;9.000;2023-03-01T01:05:46;96192.09;;;-0.44;97.95
56038;BME280;41907;47.848;9.000;2023-03-01T01:08:11;96179.56;;;-0.42;97.30
56038;BME280;41907;47.848;9.000;2023-03-01T01:10:37;96194.75;;;-0.32;97.60
56038;BME280;41907;47.848;9.000;2023-03-01T01:13:03;96185.50;;;-0.34;97.47
56038;BME280;41907;47.848;9.000;2023-03-01T01:15:28;96184.91;;;-0.37;97.84
56038;BME280;41907;47.848;9.000;2023-03-01T01:17:54;96181.19;;;-0.41;98.52
56038;BME280;41907;47.848;9.000;2023-03-01T01:20:20;96171.50;;;-0.40;98.80
56038;BME280;41907;47.848;9.000;2023-03-01T01:22:45;96177.84;;;-0.36;97.97
56038;BME280;41907;47.848;9.000;2023-03-01T01:25:10;96166.34;;;-0.35;98.63
56038;BME280;41907;47.848;9.000;2023-03-01T01:27:36;96161.69;;;-0.33;98.29
56038;BME280;41907;47.848;9.000;2023-03-01T01:30:02;96165.34;;;-0.34;98.11
56038;BME280;41907;47.848;9.000;2023-03-01T01:32:28;96158.28;;;-0.33;98.45
56038;BME280;41907;47.848;9.000;2023-03-01T01:34:53;96157.69;;;-0.35;97.92
56038;BME280;41907;47.848;9.000;2023-03-01T01:37:18;96158.97;;;-0.38;98.06
56038;BME280;41907;47.848;9.000;2023-03-01T01:39:44;96149.59;;;-0.34;97.73
56038;BME280;41907;47.848;9.000;2023-03-01T01:42:15;96150.75;;;-0.30;98.19
56038;BME280;41907;47.848;9.000;2023-03-01T01:44:42;96145.03;;;-0.27;97.88
56038;BME280;41907;47.848;9.000;2023-03-01T01:47:20;96145.84;;;-0.26;97.94
56038;BME280;41907;47.848;9.000;2023-03-01T01:49:52;96144.25;;;-0.27;98.54
56038;BME280;41907;47.848;9.000;2023-03-01T01:52:29;96136.50;;;-0.22;97.48
56038;BME280;41907;47.848;9.000;2023-03-01T01:55:08;96139.25;;;-0.29;97.37
56038;BME280;41907;47.848;9.000;2023-03-01T01:57:51;96136.63;;;-0.29;97.89
56038;BME280;41907;47.848;9.000;2023-03-01T02:00:23;96134.81;;;-0.28;98.42
56038;BME280;41907;47.848;9.000;2023-03-01T02:02:53;96125.44;;;-0.24;98.02
56038;BME280;41907;47.848;9.000;2023-03-01T02:05:28;96129.66;;;-0.23;97.44
56038;BME280;41907;47.848;9.000;2023-03-01T02:07:58;96130.47;;;-0.23;97.71
56038;BME280;41907;47.848;9.000;2023-03-01T02:10:25;96129.66;;;-0.23;97.76
56038;BME280;41907;47.848;9.000;2023-03-01T02:12:52;96129.09;;;-0.25;97.51
56038;BME280;41907;47.848;9.000;2023-03-01T02:15:18;96129.88;;;-0.25;97.52
56038;BME280;41907;47.848;9.000;2023-03-01T02:17:43;96134.81;;;-0.28;98.25
56038;BME280;41907;47.848;9.000;2023-03-01T02:20:31;96131.38;;;-0.29;97.57
56038;BME280;41907;47.848;9.000;2023-03-01T02:22:58;96123.53;;;-0.29;98.01
56038;BME280;41907;47.848;9.000;2023-03-01T02:28:21;96112.78;;;-0.27;98.15
56038;BME280;41907;47.848;9.000;2023-03-01T02:30:47;96120.56;;;-0.32;98.45
56038;BME280;41907;47.848;9.000;2023-03-01T02:33:34;96110.53;;;-0.35;98.64
56038;BME280;41907;47.848;9.000;2023-03-01T02:36:03;96112.91;;;-0.34;98.75
56038;BME280;41907;47.848;9.000;2023-03-01T02:38:31;96117.25;;;-0.40;98.38
56038;BME280;41907;47.848;9.000;2023-03-01T02:40:57;96119.19;;;-0.35;98.99
56038;BME280;41907;47.848;9.000;2023-03-01T02:43:24;96108.38;;;-0.39;98.50
56038;BME280;41907;47.848;9.000;2023-03-01T02:45:53;96100.16;;;-0.42;99.22
56038;BME280;41907;47.848;9.000;2023-03-01T02:48:22;96112.03;;;-0.40;98.73
56038;BME280;41907;47.848;9.000;2023-03-01T02:55:46;96093.19;;;-0.37;98.69
56038;BME280;41907;47.848;9.000;2023-03-01T02:58:11;96091.16;;;-0.34;98.45
56038;BME280;41907;47.848;9.000;2023-03-01T03:00:40;96091.94;;;-0.34;98.71
56038;BME280;41907;47.848;9.000;2023-03-01T03:03:13;96088.97;;;-0.38;99.22
56038;BME280;41907;47.848;9.000;2023-03-01T03:05:39;96081.69;;;-0.35;99.25
56038;BME280;41907;47.848;9.000;2023-03-01T03:08:04;96087.72;;;-0.35;99.48
56038;BME280;41907;47.848;9.000;2023-03-01T03:10:32;96084.09;;;-0.34;99.46
56038;BME280;41907;47.848;9.000;2023-03-01T03:13:04;96090.81;;;-0.26;99.63
56038;BME280;41907;47.848;9.000;2023-03-01T03:15:30;96082.03;;;-0.32;99.39
56038;BME280;41907;47.848;9.000;2023-03-01T03:17:56;96085.59;;;-0.38;99.19
56038;BME280;41907;47.848;9.000;2023-03-01T03:20:25;96070.31;;;-0.41;99.72
56038;BME280;41907;47.848;9.000;2023-03-01T03:22:53;96078.84;;;-0.34;99.56
56038;BME280;41907;47.848;9.000;2023-03-01T03:25:20;96077.25;;;-0.35;99.49
56038;BME280;41907;47.848;9.000;2023-03-01T03:27:48;96085.03;;;-0.40;100.00
56038;BME280;41907;47.848;9.000;2023-03-01T03:30:17;96075.00;;;-0.43;100.00
56038;BME280;41907;47.848;9.000;2023-03-01T03:32:45;96073.63;;;-0.46;100.00
56038;BME280;41907;47.848;9.000;2023-03-01T03:37:51;96074.75;;;-0.42;99.58
56038;BME280;41907;47.848;9.000;2023-03-01T03:40:38;96087.16;;;-0.37;99.73
56038;BME280;41907;47.848;9.000;2023-03-01T03:43:05;96085.81;;;-0.40;100.00
56038;BME280;41907;47.848;9.000;2023-03-01T03:45:31;96086.28;;;-0.43;99.87
56038;BME280;41907;47.848;9.000;2023-03-01T03:47:58;96072.25;;;-0.37;100.00
56038;BME280;41907;47.848;9.000;2023-03-01T03:50:24;96073.38;;;-0.32;99.43
56038;BME280;41907;47.848;9.000;2023-03-01T03:52:49;96077.81;;;-0.33;99.60
56038;BME280;41907;47.848;9.000;2023-03-01T03:55:14;96069.53;;;-0.42;100.00
56038;BME280;41907;47.848;9.000;2023-03-01T03:57:45;96072.16;;;-0.42;100.00
56038;BME280;41907;47.848;9.000;2023-03-01T04:00:15;96075.69;;;-0.48;100.00
56038;BME280;41907;47.848;9.000;2023-03-01T04:02:41;96066.34;;;-0.44;100.00
56038;BME280;41907;47.848;9.000;2023-03-01T04:05:10;96062.13;;;-0.45;100.00
56038;BME280;41907;47.848;9.000;2023-03-01T04:07:36;96059.19;;;-0.48;100.00
56038;BME280;41907;47.848;9.000;2023-03-01T04:10:04;96060.53;;;-0.46;100.00
56038;BME280;41907;47.848;9.000;2023-03-01T04:12:29;96059.84;;;-0.41;100.00
56038;BME280;41907;47.848;9.000;2023-03-01T04:14:55;96061.09;;;-0.44;100.00
56038;BME280;41907;47.848;9.000;2023-03-01T04:17:20;96063.72;;;-0.44;100.00
56038;BME280;41907;47.848;9.000;2023-03-01T04:19:45;96057.91;;;-0.46;100.00
56038;BME280;41907;47.848;9.000;2023-03-01T04:22:14;96063.47;;;-0.42;100.00
56038;BME280;41907;47.848;9.000;2023-03-01T04:24:42;96062.69;;;-0.43;100.00
56038;BME280;41907;47.848;9.000;2023-03-01T04:27:08;96053.34;;;-0.39;100.00
56038;BME280;41907;47.848;9.000;2023-03-01T04:29:33;96052.88;;;-0.35;100.00
56038;BME280;41907;47.848;9.000;2023-03-01T04:31:59;96048.91;;;-0.38;100.00
56038;BME280;41907;47.848;9.000;2023-03-01T04:34:24;96051.75;;;-0.40;100.00
56038;BME280;41907;47.848;9.000;2023-03-01T04:36:52;96050.97;;;-0.40;100.00
56038;BME280;41907;47.848;9.000;2023-03-01T04:39:17;96048.34;;;-0.40;100.00
56038;BME280;41907;47.848;9.000;2023-03-01T04:41:42;96043.31;;;-0.30;100.00
56038;BME280;41907;47.848;9.000;2023-03-01T04:44:08;96050.16;;;-0.29;100.00
56038;BME280;41907;47.848;9.000;2023-03-01T04:46:34;96053.44;;;-0.33;100.00
56038;BME280;41907;47.848;9.000;2023-03-01T04:49:03;96049.22;;;-0.34;100.00
56038;BME280;41907;47.848;9.000;2023-03-01T04:51:29;96047.97;;;-0.32;100.00
56038;BME280;41907;47.848;9.000;2023-03-01T04:53:54;96047.28;;;-0.27;100.00
56038;BME280;41907;47.848;9.000;2023-03-01T04:56:19;96039.88;;;-0.30;100.00
56038;BME280;41907;47.848;9.000;2023-03-01T04:58:45;96050.38;;;-0.30;100.00
56038;BME280;41907;47.848;9.000;2023-03-01T05:01:13;96049.09;;;-0.28;100.00
56038;BME280;41907;47.848;9.000;2023-03-01T05:03:49;96051.59;;;-0.21;100.00
56038;BME280;41907;47.848;9.000;2023-03-01T05:06:16;96042.94;;;-0.22;99.90
56038;BME280;41907;47.848;9.000;2023-03-01T05:08:43;96048.78;;;-0.31;100.00
56038;BME280;41907;47.848;9.000;2023-03-01T05:11:09;96047.53;;;-0.29;100.00
56038;BME280;41907;47.848;9.000;2023-03-01T05:13:36;96040.47;;;-0.28;100.00
56038;BME280;41907;47.848;9.000;2023-03-01T05:16:03;96042.63;;;-0.37;100.00
56038;BME280;41907;47.848;9.000;2023-03-01T05:18:30;96035.31;;;-0.35;100.00
56038;BME280;41907;47.848;9.000;2023-03-01T05:21:02;96033.84;;;-0.31;100.00
56038;BME280;41907;47.848;9.000;2023-03-01T05:23:30;96038.97;;;-0.36;100.00
56038;BME280;41907;47.848;9.000;2023-03-01T05:25:58;96034.41;;;-0.29;100.00
56038;BME280;41907;47.848;9.000;2023-03-01T05:28:25;96033.28;;;-0.33;100.00
56038;BME280;41907;47.848;9.000;2023-03-01T05:30:51;96036.56;;;-0.26;100.00
56038;BME280;41907;47.848;9.000;2023-03-01T05:33:17;96029.41;;;-0.30;100.00
56038;BME280;41907;47.848;9.000;2023-03-01T05:35:43;96033.19;;;-0.38;100.00
56038;BME280;41907;47.848;9.000;2023-03-01T05:38:11;96029.44;;;-0.42;100.00
56038;BME280;41907;47.848;9.000;2023-03-01T05:40:39;96029.28;;;-0.35;100.00
56038;BME280;41907;47.848;9.000;2023-03-01T05:43:05;96031.81;;;-0.41;100.00
56038;BME280;41907;47.848;9.000;2023-03-01T05:45:30;96030.56;;;-0.38;100.00
56038;BME280;41907;47.848;9.000;2023-03-01T05:47:57;96028.63;;;-0.43;100.00
56038;BME280;41907;47.848;9.000;2023-03-01T05:50:25;96033.28;;;-0.33;100.00
56038;BME280;41907;47.848;9.000;2023-03-01T05:52:59;96019.50;;;-0.40;100.00
56038;BME280;41907;47.848;9.000;2023-03-01T05:55:25;96018.50;;;-0.39;100.00
56038;BME280;41907;47.848;9.000;2023-03-01T05:57:50;96017.78;;;-0.34;100.00
56038;BME280;41907;47.848;9.000;2023-03-01T06:00:18;96009.34;;;-0.37;100.00
56038;BME280;41907;47.848;9.000;2023-03-01T06:02:44;96017.69;;;-0.40;100.00
56038;BME280;41907;47.848;9.000;2023-03-01T06:05:13;96010.84;;;-0.41;100.00
56038;BME280;41907;47.848;9.000;2023-03-01T06:07:39;96009.25;;;-0.42;100.00
56038;BME280;41907;47.848;9.000;2023-03-01T06:10:06;96011.53;;;-0.45;100.00
56038;BME280;41907;47.848;9.000;2023-03-01T06:12:36;96007.09;;;-0.56;100.00
56038;BME280;41907;47.848;9.000;2023-03-01T06:15:03;96018.38;;;-0.56;100.00
56038;BME280;41907;47.848;9.000;2023-03-01T06:17:31;96009.72;;;-0.56;100.00
56038;BME280;41907;47.848;9.000;2023-03-01T06:19:56;96011.44;;;-0.50;100.00
56038;BME280;41907;47.848;9.000;2023-03-01T06:22:22;96008.47;;;-0.54;100.00
56038;BME280;41907;47.848;9.000;2023-03-01T06:24:47;96019.97;;;-0.55;100.00
56038;BME280;41907;47.848;9.000;2023-03-01T06:27:13;96023.75;;;-0.51;100.00
56038;BME280;41907;47.848;9.000;2023-03-01T06:29:38;96015.53;;;-0.54;100.00
56038;BME280;41907;47.848;9.000;2023-03-01T06:32:03;96022.38;;;-0.53;100.00
56038;BME280;41907;47.848;9.000;2023-03-01T06:34:29;96016.91;;;-0.52;100.00
56038;BME280;41907;47.848;9.000;2023-03-01T06:36:55;96024.41;;;-0.44;100.00
56038;BME280;41907;47.848;9.000;2023-03-01T06:39:20;96019.31;;;-0.50;100.00
56038;BME280;41907;47.848;9.000;2023-03-01T06:41:45;96021.34;;;-0.52;100.00
56038;BME280;41907;47.848;9.000;2023-03-01T06:44:11;96019.44;;;-0.57;100.00
56038;BME280;41907;47.848;9.000;2023-03-01T06:46:36;96013.63;;;-0.59;100.00
56038;BME280;41907;47.848;9.000;2023-03-01T06:49:01;96019.31;;;-0.62;100.00
56038;BME280;41907;47.848;9.000;2023-03-01T06:51:29;96016.81;;;-0.57;100.00
56038;BME280;41907;47.848;9.000;2023-03-01T06:53:55;96009.41;;;-0.60;100.00
56038;BME280;41907;47.848;9.000;2023-03-01T06:56:20;96022.16;;;-0.52;100.00
56038;BME280;41907;47.848;9.000;2023-03-01T06:58:45;96016.81;;;-0.57;100.00
56038;BME280;41907;47.848;9.000;2023-03-01T07:01:11;96022.38;;;-0.53;100.00
56038;BME280;41907;47.848;9.000;2023-03-01T07:03:36;96024.78;;;-0.52;100.00
56038;BME280;41907;47.848;9.000;2023-03-01T07:06:01;96014.06;;;-0.50;100.00
56038;BME280;41907;47.848;9.000;2023-03-01T07:08:27;96023.75;;;-0.51;100.00
56038;BME280;41907;47.848;9.000;2023-03-01T07:10:58;96022.72;;;-0.50;100.00
56038;BME280;41907;47.848;9.000;2023-03-01T07:13:24;96018.38;;;-0.56;100.00
56038;BME280;41907;47.848;9.000;2023-03-01T07:15:49;96025.34;;;-0.50;100.00
56038;BME280;41907;47.848;9.000;2023-03-01T07:18:15;96022.25;;;-0.47;100.00
56038;BME280;41907;47.848;9.000;2023-03-01T07:20:40;96026.47;;;-0.46;100.00
56038;BME280;41907;47.848;9.000;2023-03-01T07:23:06;96021.78;;;-0.44;100.00
56038;BME280;41907;47.848;9.000;2023-03-01T07:25:32;96013.94;;;-0.44;100.00
56038;BME280;41907;47.848;9.000;2023-03-01T07:27:58;96020.53;;;-0.41;100.00
56038;BME280;41907;47.848;9.000;2023-03-01T07:30:24;96011.66;;;-0.40;100.00
56038;BME280;41907;47.848;9.000;2023-03-01T07:32:52;96015.38;;;-0.36;100.00
56038;BME280;41907;47.848;9.000;2023-03-01T07:35:18;96015.38;;;-0.36;100.00
56038;BME280;41907;47.848;9.000;2023-03-01T07:37:43;96018.91;;;-0.30;100.00
56038;BME280;41907;47.848;9.000;2023-03-01T07:40:09;96011.63;;;-0.28;100.00
56038;BME280;41907;47.848;9.000;2023-03-01T07:42:35;96010.25;;;-0.31;100.00
56038;BME280;41907;47.848;9.000;2023-03-01T07:45:00;96006.84;;;-0.31;100.00
56038;BME280;41907;47.848;9.000;2023-03-01T07:47:25;96009.69;;;-0.33;100.00
56038;BME280;41907;47.848;9.000;2023-03-01T07:49:51;96000.38;;;-0.41;100.00
56038;BME280;41907;47.848;9.000;2023-03-01T07:52:16;96000.47;;;-0.47;100.00
56038;BME280;41907;47.848;9.000;2023-03-01T07:54:44;95998.22;;;-0.44;100.00
56038;BME280;41907;47.848;9.000;2023-03-01T07:57:10;96002.50;;;-0.38;100.00
56038;BME280;41907;47.848;9.000;2023-03-01T07:59:36;96001.84;;;-0.33;100.00
56038;BME280;41907;47.848;9.000;2023-03-01T08:02:01;96000.00;;;-0.32;100.00
56038;BME280;41907;47.848;9.000;2023-03-01T08:04:27;96011.28;;;-0.32;100.00
56038;BME280;41907;47.848;9.000;2023-03-01T08:06:53;95996.13;;;-0.30;100.00
56038;BME280;41907;47.848;9.000;2023-03-01T08:09:19;95999.41;;;-0.23;100.00
56038;BME280;41907;47.848;9.000;2023-03-01T08:11:44;95999.63;;;-0.24;100.00
56038;BME280;41907;47.848;9.000;2023-03-01T08:14:09;95998.97;;;-0.20;100.00
56038;BME280;41907;47.848;9.000;2023-03-01T08:16:36;95993.59;;;-0.25;100.00
56038;BME280;41907;47.848;9.000;2023-03-01T08:19:09;95994.41;;;-0.24;100.00
56038;BME280;41907;47.848;9.000;2023-03-01T08:21:35;95986.88;;;-0.21;100.00
56038;BME280;41907;47.848;9.000;2023-03-01T08:24:02;95991.88;;;-0.19;100.00
56038;BME280;41907;47.848;9.000;2023-03-01T08:26:27;95989.28;;;-0.19;100.00
56038;BME280;41907;47.848;9.000;2023-03-01T08:28:53;95988.56;;;-0.15;100.00
56038;BME280;41907;47.848;9.000;2023-03-01T08:31:22;95992.31;;;-0.11;99.95
56038;BME280;41907;47.848;9.000;2023-03-01T08:33:48;95998.66;;;-0.07;100.00
56038;BME280;41907;47.848;9.000;2023-03-01T08:36:17;95991.28;;;-0.10;99.63
56038;BME280;41907;47.848;9.000;2023-03-01T08:38:43;95982.38;;;-0.09;99.39
56038;BME280;41907;47.848;9.000;2023-03-01T08:41:08;95985.59;;;-0.18;100.00
56038;BME280;41907;47.848;9.000;2023-03-01T08:43:34;95980.69;;;-0.15;100.00
56038;BME280;41907;47.848;9.000;2023-03-01T08:45:59;95985.56;;;-0.07;100.00
56038;BME280;41907;47.848;9.000;2023-03-01T08:48:25;95978.81;;;-0.03;99.98
56038;BME280;41907;47.848;9.000;2023-03-01T08:50:50;95979.63;;;-0.02;99.10
56038;BME280;41907;47.848;9.000;2023-03-01T08:53:16;95975.19;;;-0.02;98.85
56038;BME280;41907;47.848;9.000;2023-03-01T08:55:41;95973.47;;;-0.08;99.08
56038;BME280;41907;47.848;9.000;2023-03-01T08:58:06;95962.75;;;-0.06;99.88
56038;BME280;41907;47.848;9.000;2023-03-01T09:00:32;95964.59;;;-0.07;99.28
56038;BME280;41907;47.848;9.000;2023-03-01T09:03:00;95969.94;;;-0.02;98.35
56038;BME280;41907;47.848;9.000;2023-03-01T09:05:25;95968.19;;;0.04;98.80
56038;BME280;41907;47.848;9.000;2023-03-01T09:07:50;95969.44;;;0.02;98.79
56038;BME280;41907;47.848;9.000;2023-03-01T09:10:16;95978.50;;;-0.06;98.53
56038;BME280;41907;47.848;9.000;2023-03-01T09:12:41;95980.97;;;0.00;98.54
56038;BME280;41907;47.848;9.000;2023-03-01T09:15:07;95979.00;;;0.08;98.49
56038;BME280;41907;47.848;9.000;2023-03-01T09:17:32;95974.31;;;0.10;98.04
56038;BME280;41907;47.848;9.000;2023-03-01T09:19:58;95977.97;;;0.09;97.86
56038;BME280;41907;47.848;9.000;2023-03-01T09:22:24;95970.28;;;0.19;97.63
56038;BME280;41907;47.848;9.000;2023-03-01T09:24:50;95969.50;;;0.18;98.70
56038;BME280;41907;47.848;9.000;2023-03-01T09:27:15;95961.75;;;0.12;97.04
56038;BME280;41907;47.848;9.000;2023-03-01T09:29:44;95958.09;;;0.13;96.76
56038;BME280;41907;47.848;9.000;2023-03-01T09:32:09;95956.94;;;0.20;96.85
56038;BME280;41907;47.848;9.000;2023-03-01T09:34:35;95954.00;;;0.17;96.75
56038;BME280;41907;47.848;9.000;2023-03-01T09:37:20;95952.47;;;0.21;96.41
56038;BME280;41907;47.848;9.000;2023-03-01T09:39:45;95945.63;;;0.20;97.27
56038;BME280;41907;47.848;9.000;2023-03-01T09:42:12;95957.66;;;0.16;97.63
56038;BME280;41907;47.848;9.000;2023-03-01T09:44:57;95961.25;;;0.26;97.39
56038;BME280;41907;47.848;9.000;2023-03-01T09:47:28;95963.47;;;0.34;96.68
56038;BME280;41907;47.848;9.000;2023-03-01T09:52:42;95957.94;;;0.19;96.69
56038;BME280;41907;47.848;9.000;2023-03-01T09:55:14;95966.50;;;0.26;96.71
56038;BME280;41907;47.848;9.000;2023-03-01T09:57:57;95966.31;;;0.33;95.82
56038;BME280;41907;47.848;9.000;2023-03-01T10:00:43;95958.78;;;0.36;96.02
56038;BME280;41907;47.848;9.000;2023-03-01T10:08:26;95950.44;;;0.40;96.08
56038;BME280;41907;47.848;9.000;2023-03-01T10:10:54;95957.91;;;0.31;96.10
56038;BME280;41907;47.848;9.000;2023-03-01T10:16:48;95943.34;;;0.23;95.87
56038;BME280;41907;47.848;9.000;2023-03-01T10:19:22;95937.13;;;0.29;95.84
56038;BME280;41907;47.848;9.000;2023-03-01T10:21:50;95940.19;;;0.55;94.98
56038;BME280;41907;47.848;9.000;2023-03-01T10:24:17;95937.16;;;0.46;94.95
56038;BME280;41907;47.848;9.000;2023-03-01T10:26:57;95929.38;;;0.51;94.14
56038;BME280;41907;47.848;9.000;2023-03-01T10:29:30;95920.13;;;0.49;94.27
56038;BME280;41907;47.848;9.000;2023-03-01T10:31:57;95936.53;;;0.56;94.65
56038;BME280;41907;47.848;9.000;2023-03-01T10:34:33;95922.63;;;0.55;93.48
56038;BME280;41907;47.848;9.000;2023-03-01T10:39:55;95926.97;;;0.50;93.55
56038;BME280;41907;47.848;9.000;2023-03-01T10:42:31;95934.03;;;0.49;93.51
56038;BME280;41907;47.848;9.000;2023-03-01T10:45:02;95935.47;;;0.57;92.63
56038;BME280;41907;47.848;9.000;2023-03-01T10:47:39;95928.56;;;0.51;92.97
56038;BME280;41907;47.848;9.000;2023-03-01T10:50:17;95927.38;;;0.58;93.01
56038;BME280;41907;47.848;9.000;2023-03-01T10:52:56;95918.97;;;0.56;92.79
56038;BME280;41907;47.848;9.000;2023-03-01T10:55:33;95914.97;;;0.54;92.22
56038;BME280;41907;47.848;9.000;2023-03-01T10:58:20;95918.63;;;0.53;92.84
56038;BME280;41907;47.848;9.000;2023-03-01T11:03:15;95913.22;;;0.59;93.42
56038;BME280;41907;47.848;9.000;2023-03-01T11:05:53;95917.25;;;0.67;92.65
56038;BME280;41907;47.848;9.000;2023-03-01T11:08:40;95910.03;;;0.57;92.37
56038;BME280;41907;47.848;9.000;2023-03-01T11:13:46;95904.38;;;0.49;93.17
56038;BME280;41907;47.848;9.000;2023-03-01T11:16:13;95900.03;;;0.38;93.65
56038;BME280;41907;47.848;9.000;2023-03-01T11:18:39;95903.59;;;0.48;93.29
56038;BME280;41907;47.848;9.000;2023-03-01T11:21:05;95905.56;;;0.58;93.15
56038;BME280;41907;47.848;9.000;2023-03-01T11:23:33;95901.34;;;0.57;92.74
56038;BME280;41907;47.848;9.000;2023-03-01T11:26:07;95904.06;;;0.62;93.09
56038;BME280;41907;47.848;9.000;2023-03-01T11:28:36;95896.44;;;0.60;93.05
56038;BME280;41907;47.848;9.000;2023-03-01T11:31:08;95892.94;;;0.71;92.52
56038;BME280;41907;47.848;9.000;2023-03-01T11:41:48;95896.19;;;0.62;92.12
56038;BME280;41907;47.848;9.000;2023-03-01T11:44:18;95895.97;;;0.63;92.52
56038;BME280;41907;47.848;9.000;2023-03-01T11:58:31;95889.66;;;0.81;91.18
56038;BME280;41907;47.848;9.000;2023-03-01T12:11:54;95866.28;;;1.01;90.37
56038;BME280;41907;47.848;9.000;2023-03-01T12:17:15;95856.22;;;0.93;89.56
56038;BME280;41907;47.848;9.000;2023-03-01T12:48:28;95818.59;;;1.36;90.01
56038;BME280;41907;47.848;9.000;2023-03-01T12:51:01;95813.16;;;1.43;88.17
56038;BME280;41907;47.848;9.000;2023-03-01T12:53:37;95817.91;;;1.46;88.24
56038;BME280;41907;47.848;9.000;2023-03-01T12:56:10;95816.09;;;1.46;88.19
56038;BME280;41907;47.848;9.000;2023-03-01T13:01:15;95814.09;;;1.32;88.50
56038;BME280;41907;47.848;9.000;2023-03-01T13:06:44;95814.47;;;1.40;88.04
56038;BME280;41907;47.848;9.000;2023-03-01T13:17:52;95823.66;;;1.43;87.08
56038;BME280;41907;47.848;9.000;2023-03-01T13:20:29;95824.63;;;1.59;87.31
56038;BME280;41907;47.848;9.000;2023-03-01T13:28:56;95824.16;;;1.67;86.96
56038;BME280;41907;47.848;9.000;2023-03-01T13:34:01;95816.03;;;1.68;86.41
56038;BME280;41907;47.848;9.000;2023-03-01T13:39:13;95810.00;;;1.68;85.71
56038;BME280;41907;47.848;9.000;2023-03-01T13:41:53;95804.53;;;1.74;85.09
56038;BME280;41907;47.848;9.000;2023-03-01T13:44:38;95811.91;;;1.77;85.88
56038;BME280;41907;47.848;9.000;2023-03-01T13:52:38;95804.13;;;1.88;86.27
56038;BME280;41907;47.848;9.000;2023-03-01T13:57:39;95812.34;;;1.96;86.12
56038;BME280;41907;47.848;9.000;2023-03-01T14:00:05;95818.78;;;1.83;85.39
56038;BME280;41907;47.848;9.000;2023-03-01T14:02:31;95820.97;;;1.92;85.89
56038;BME280;41907;47.848;9.000;2023-03-01T14:04:58;95831.72;;;1.90;86.54
56038;BME280;41907;47.848;9.000;2023-03-01T14:07:25;95828.53;;;2.15;85.10
56038;BME280;41907;47.848;9.000;2023-03-01T14:09:58;95824.72;;;2.01;84.89
56038;BME280;41907;47.848;9.000;2023-03-01T14:12:42;95830.22;;;1.99;84.37
56038;BME280;41907;47.848;9.000;2023-03-01T14:15:19;95820.59;;;1.78;85.76
56038;BME280;41907;47.848;9.000;2023-03-01T14:17:52;95823.75;;;1.80;86.10
56038;BME280;41907;47.848;9.000;2023-03-01T14:20:26;95824.81;;;1.79;86.70
56038;BME280;41907;47.848;9.000;2023-03-01T14:22:59;95823.50;;;1.81;85.78
56038;BME280;41907;47.848;9.000;2023-03-01T14:25:27;95834.88;;;1.87;85.93
56038;BME280;41907;47.848;9.000;2023-03-01T14:27:56;95842.16;;;1.80;85.70
56038;BME280;41907;47.848;9.000;2023-03-01T14:30:25;95846.28;;;1.98;84.58
56038;BME280;41907;47.848;9.000;2023-03-01T14:32:53;95846.63;;;1.79;85.26
56038;BME280;41907;47.848;9.000;2023-03-01T14:35:21;95834.00;;;1.76;86.18
56038;BME280;41907;47.848;9.000;2023-03-01T14:37:47;95825.06;;;1.77;86.78
56038;BME280;41907;47.848;9.000;2023-03-01T14:40:25;95818.31;;;1.86;86.43
56038;BME280;41907;47.848;9.000;2023-03-01T14:42:52;95815.22;;;1.95;85.46
56038;BME280;41907;47.848;9.000;2023-03-01T14:45:18;95793.94;;;1.96;85.20
56038;BME280;41907;47.848;9.000;2023-03-01T14:47:45;95775.38;;;2.13;85.13
56038;BME280;41907;47.848;9.000;2023-03-01T14:50:24;95779.09;;;2.22;85.36
56038;BME280;41907;47.848;9.000;2023-03-01T14:52:53;95774.16;;;2.31;84.02
56038;BME280;41907;47.848;9.000;2023-03-01T14:55:30;95775.31;;;2.50;84.84
56038;BME280;41907;47.848;9.000;2023-03-01T14:57:56;95768.25;;;2.55;82.86
56038;BME280;41907;47.848;9.000;2023-03-01T15:00:25;95768.78;;;2.57;83.35
56038;BME280;41907;47.848;9.000;2023-03-01T15:02:52;95771.50;;;2.73;83.08
56038;BME280;41907;47.848;9.000;2023-03-01T15:05:24;95765.22;;;2.84;81.45
56038;BME280;41907;47.848;9.000;2023-03-01T15:07:51;95760.81;;;3.05;80.63
56038;BME280;41907;47.848;9.000;2023-03-01T15:10:23;95765.53;;;2.92;81.07
56038;BME280;41907;47.848;9.000;2023-03-01T15:12:49;95754.16;;;2.87;80.60